createdAt,value
2023-04-10T00:00:09.030Z,213694.00
2023-04-10T00:06:11.656Z,213653.00
2023-04-10T00:12:15.137Z,213645.00
2023-04-10T00:18:18.122Z,213603.00
2023-04-10T00:24:20.627Z,213561.00
2023-04-10T00:30:23.119Z,213542.00
2023-04-10T00:36:25.572Z,213489.00
2023-04-10T00:42:28.341Z,213447.00
2023-04-10T00:48:30.926Z,213417.00
2023-04-10T00:54:34.997Z,213390.00
2023-04-10T01:00:37.644Z,213370.00
2023-04-10T01:06:58.640Z,213328.00
2023-04-10T01:13:24.406Z,213308.00
2023-04-10T01:19:46.640Z,213308.00
2023-04-10T01:26:00.311Z,213294.00
2023-04-10T01:32:08.837Z,213278.00
2023-04-10T01:38:12.327Z,213240.00
2023-04-10T01:44:16.579Z,213212.00
2023-04-10T01:50:20.605Z,213200.00
2023-04-10T01:56:23.931Z,213158.00
2023-04-10T02:02:26.502Z,213131.00
2023-04-10T02:08:53.980Z,213117.00
2023-04-10T02:14:57.716Z,213103.00
2023-04-10T02:21:01.509Z,213089.00
2023-04-10T02:27:04.130Z,213075.00
2023-04-10T02:33:06.761Z,213053.00
2023-04-10T02:39:09.543Z,213047.00
2023-04-10T02:45:21.518Z,213019.00
2023-04-10T02:51:24.620Z,212973.00
2023-04-10T02:57:29.213Z,212911.00
2023-04-10T03:03:32.007Z,212925.00
2023-04-10T03:09:34.738Z,212945.00
2023-04-10T03:15:37.229Z,212939.00
2023-04-10T03:21:40.001Z,212917.00
2023-04-10T03:27:42.580Z,212905.00
2023-04-10T03:33:44.919Z,212903.00
2023-04-10T03:39:47.304Z,212891.00
2023-04-10T03:45:50.063Z,212883.00
2023-04-10T03:51:52.968Z,212883.00
2023-04-10T03:57:55.419Z,212925.00
2023-04-10T04:04:00.143Z,212945.00
2023-04-10T04:10:21.820Z,213019.00
2023-04-10T04:16:36.810Z,213097.00
2023-04-10T04:22:57.560Z,213170.00
2023-04-10T04:29:18.594Z,213254.00
2023-04-10T04:35:39.429Z,213322.00
2023-04-10T04:41:54.997Z,213398.00
2023-04-10T04:48:17.442Z,213489.00
2023-04-10T04:54:40.025Z,213597.00
2023-04-10T05:01:09.585Z,213803.00
2023-04-10T05:07:44.565Z,214011.00
2023-04-10T05:14:10.132Z,214266.00
2023-04-10T05:20:27.768Z,214667.00
2023-04-10T05:26:48.498Z,215146.00
2023-04-10T05:33:21.041Z,215965.00
2023-04-10T05:39:40.962Z,216521.00
2023-04-10T05:46:15.705Z,217213.00
2023-04-10T05:52:38.495Z,217475.00
2023-04-10T05:59:07.038Z,218258.00
2023-04-10T06:05:38.975Z,218882.00
2023-04-10T06:11:43.373Z,219660.00
2023-04-10T06:17:46.044Z,220653.00
2023-04-10T06:23:48.829Z,221296.00
2023-04-10T06:29:51.243Z,222175.00
2023-04-10T06:35:57.995Z,222602.00
2023-04-10T06:42:01.864Z,222721.00
2023-04-10T06:48:16.634Z,223723.00
2023-04-10T06:54:19.197Z,223345.00
2023-04-10T07:00:21.738Z,223792.00
2023-04-10T07:06:24.539Z,224564.00
2023-04-10T07:12:27.411Z,225277.00
2023-04-10T07:18:30.093Z,225129.00
2023-04-10T07:24:33.252Z,224697.00
2023-04-10T07:30:35.643Z,224210.00
2023-04-10T07:36:38.257Z,223553.00
2023-04-10T07:42:40.500Z,223240.00
2023-04-10T07:48:42.929Z,222367.00
2023-04-10T07:54:45.335Z,222015.00
2023-04-10T08:00:47.641Z,222396.00
2023-04-10T08:06:53.494Z,223056.00
2023-04-10T08:12:56.064Z,222921.00
2023-04-10T08:18:59.245Z,223561.00
2023-04-10T08:25:01.619Z,223361.00
2023-04-10T08:31:04.324Z,223129.00
2023-04-10T08:37:09.175Z,224457.00
2023-04-10T08:43:12.910Z,224331.00
2023-04-10T08:49:22.425Z,224099.00
2023-04-10T08:55:24.887Z,223890.00
2023-04-10T09:01:27.488Z,223212.00
2023-04-10T09:07:30.152Z,223585.00
2023-04-10T09:13:37.835Z,224062.00
2023-04-10T09:19:40.495Z,224099.00
2023-04-10T09:25:43.185Z,224562.00
2023-04-10T09:31:46.199Z,223986.00
2023-04-10T09:37:49.236Z,224323.00
2023-04-10T09:44:10.351Z,224990.00
2023-04-10T09:50:12.835Z,225505.00
2023-04-10T09:56:15.799Z,225580.00
2023-04-10T10:02:20.204Z,224850.00
2023-04-10T10:08:23.225Z,223860.00
2023-04-10T10:14:29.377Z,223121.00
2023-04-10T10:20:36.565Z,223248.00
2023-04-10T10:26:44.188Z,223882.00
2023-04-10T10:32:48.291Z,224425.00
2023-04-10T10:39:13.601Z,224188.00
2023-04-10T10:45:19.721Z,224255.00
2023-04-10T10:51:22.285Z,224788.00
2023-04-10T10:57:53.819Z,225083.00
2023-04-10T11:03:56.613Z,225534.00
2023-04-10T11:09:59.439Z,224895.00
2023-04-10T11:16:08.207Z,224562.00
2023-04-10T11:22:11.048Z,223086.00
2023-04-10T11:28:38.465Z,223315.00
2023-04-10T11:34:45.446Z,223204.00
2023-04-10T11:40:55.583Z,223665.00
2023-04-10T11:46:59.099Z,223994.00
2023-04-10T11:53:01.898Z,223733.00
2023-04-10T11:59:08.242Z,223593.00
2023-04-10T12:05:11.082Z,223108.00
2023-04-10T12:11:14.455Z,223404.00
2023-04-10T12:17:17.650Z,223102.00
2023-04-10T12:23:20.803Z,222791.00
2023-04-10T12:29:28.379Z,222721.00
2023-04-10T12:35:40.935Z,221758.00
2023-04-10T12:41:43.455Z,221858.00
2023-04-10T12:47:47.612Z,220849.00
2023-04-10T12:53:50.101Z,220324.00
2023-04-10T12:59:53.858Z,220862.00
2023-04-10T13:05:56.701Z,220675.00
2023-04-10T13:11:59.388Z,220704.00
2023-04-10T13:18:04.315Z,219905.00
2023-04-10T13:24:08.449Z,220248.00
2023-04-10T13:30:11.130Z,219941.00
2023-04-10T13:36:14.179Z,220144.00
2023-04-10T13:42:18.985Z,219861.00
2023-04-10T13:48:24.525Z,219752.00
2023-04-10T13:54:29.832Z,219811.00
2023-04-10T14:00:32.127Z,219741.00
2023-04-10T14:06:35.158Z,219343.00
2023-04-10T14:12:38.052Z,219024.00
2023-04-10T14:18:40.746Z,219119.00
2023-04-10T14:24:43.197Z,219105.00
2023-04-10T14:30:50.181Z,219155.00
2023-04-10T14:36:56.437Z,219070.00
2023-04-10T14:42:59.213Z,218773.00
2023-04-10T14:49:01.867Z,218737.00
2023-04-10T14:55:04.833Z,218646.00
2023-04-10T15:01:12.119Z,218531.00
2023-04-10T15:07:14.807Z,218417.00
2023-04-10T15:13:17.491Z,218296.00
2023-04-10T15:19:20.398Z,218288.00
2023-04-10T15:25:22.731Z,218222.00
2023-04-10T15:31:25.217Z,218160.00
2023-04-10T15:37:27.577Z,218116.00
2023-04-10T15:43:29.882Z,218023.00
2023-04-10T15:49:37.611Z,217951.00
2023-04-10T15:55:41.443Z,217910.00
2023-04-10T16:01:44.108Z,217845.00
2023-04-10T16:07:46.450Z,217760.00
2023-04-10T16:13:49.931Z,217667.00
2023-04-10T16:19:52.866Z,217582.00
2023-04-10T16:25:55.443Z,217496.00
2023-04-10T16:31:57.923Z,217406.00
2023-04-10T16:38:00.774Z,217311.00
2023-04-10T16:44:03.728Z,217219.00
2023-04-10T16:50:06.672Z,217129.00
2023-04-10T16:56:09.244Z,217050.00
2023-04-10T17:02:11.914Z,216986.00
2023-04-10T17:08:14.394Z,216956.00
2023-04-10T17:14:17.385Z,216890.00
2023-04-10T17:20:19.928Z,216840.00
2023-04-10T17:26:23.570Z,216782.00
2023-04-10T17:32:26.476Z,216725.00
2023-04-10T17:38:28.862Z,216697.00
2023-04-10T17:44:31.880Z,216661.00
2023-04-10T17:50:34.579Z,216613.00
2023-04-10T17:56:36.958Z,216551.00
2023-04-10T18:02:39.968Z,216521.00
2023-04-10T18:08:42.719Z,216477.00
2023-04-10T18:14:45.997Z,216442.00
2023-04-10T18:20:48.594Z,216392.00
2023-04-10T18:26:50.819Z,216345.00
2023-04-10T18:32:53.466Z,216318.00
2023-04-10T18:38:56.504Z,216296.00
2023-04-10T18:44:59.376Z,216296.00
2023-04-10T18:51:01.995Z,216302.00
2023-04-10T18:57:04.632Z,216318.00
2023-04-10T19:03:07.434Z,216326.00
2023-04-10T19:09:09.822Z,216304.00
2023-04-10T19:15:13.998Z,216304.00
2023-04-10T19:21:16.577Z,216288.00
2023-04-10T19:27:19.135Z,216260.00
2023-04-10T19:33:21.883Z,216260.00
2023-04-10T19:39:24.445Z,216240.00
2023-04-10T19:45:29.840Z,216210.00
2023-04-10T19:51:32.663Z,216210.00
2023-04-10T19:57:34.730Z,216183.00
2023-04-10T20:03:38.250Z,216191.00
2023-04-10T20:09:40.714Z,216163.00
2023-04-10T20:15:44.113Z,216100.00
2023-04-10T20:21:47.146Z,216114.00
2023-04-10T20:27:49.239Z,216100.00
2023-04-10T20:33:51.728Z,216086.00
2023-04-10T20:39:53.841Z,216078.00
2023-04-10T20:45:56.656Z,216064.00
2023-04-10T20:51:59.316Z,216056.00
2023-04-10T20:58:01.901Z,216037.00
2023-04-10T21:04:04.510Z,216015.00
2023-04-10T21:10:07.418Z,216009.00
2023-04-10T21:16:10.216Z,215965.00
2023-04-10T21:22:12.652Z,215943.00
2023-04-10T21:28:15.343Z,215909.00
2023-04-10T21:34:17.825Z,215888.00
2023-04-10T21:40:20.324Z,215797.00
2023-04-10T21:46:23.116Z,215714.00
2023-04-10T21:52:25.546Z,215692.00
2023-04-10T21:58:28.004Z,215628.00
2023-04-10T22:04:30.864Z,215596.00
2023-04-10T22:10:34.950Z,215607.00
2023-04-10T22:16:37.458Z,215588.00
2023-04-10T22:22:39.977Z,215615.00
2023-04-10T22:28:42.548Z,215615.00
2023-04-10T22:34:45.114Z,215596.00
2023-04-10T22:40:47.381Z,215538.00
2023-04-10T22:46:49.955Z,215489.00
2023-04-10T22:52:52.237Z,215489.00
2023-04-10T22:58:54.964Z,215449.00
2023-04-10T23:04:58.157Z,215449.00
2023-04-10T23:11:00.575Z,215449.00
2023-04-10T23:17:02.998Z,215489.00
2023-04-10T23:23:05.314Z,215489.00
2023-04-10T23:29:07.984Z,215469.00
2023-04-10T23:35:10.522Z,215469.00
2023-04-10T23:41:13.008Z,215447.00
2023-04-10T23:47:15.319Z,215405.00
2023-04-10T23:53:18.000Z,215391.00
2023-04-10T23:59:20.460Z,215385.00
